createdAt,value
2018-12-11T00:00:16.927Z,90.23
2018-12-11T00:01:16.907Z,90.54
2018-12-11T00:02:16.928Z,90.54
2018-12-11T00:03:16.890Z,90.85
2018-12-11T00:04:16.871Z,91.27
2018-12-11T00:05:16.861Z,91.27
2018-12-11T00:06:16.864Z,91.58
2018-12-11T00:07:16.843Z,91.99
2018-12-11T00:08:16.858Z,91.68
2018-12-11T00:09:16.816Z,92.72
2018-12-11T00:10:16.804Z,92.10
2018-12-11T00:11:16.795Z,92.30
2018-12-11T00:12:16.789Z,92.72
2018-12-11T00:13:16.772Z,92.82
2018-12-11T00:14:16.797Z,91.78
2018-12-11T00:15:16.755Z,91.47
2018-12-11T00:16:16.740Z,90.64
2018-12-11T00:17:16.734Z,91.78
2018-12-11T00:18:16.727Z,91.68
2018-12-11T00:19:16.710Z,91.78
2018-12-11T00:20:16.746Z,92.10
2018-12-11T00:21:16.688Z,92.03
2018-12-11T00:22:16.674Z,92.10
2018-12-11T00:23:16.666Z,91.93
2018-12-11T00:24:16.662Z,92.55
2018-12-11T00:25:16.647Z,93.07
2018-12-11T00:26:16.672Z,93.07
2018-12-11T00:27:16.621Z,93.28
2018-12-11T00:28:16.610Z,93.22
2018-12-11T00:29:16.598Z,93.01
2018-12-11T00:30:16.600Z,93.22
2018-12-11T00:31:16.578Z,92.90
2018-12-11T00:32:16.599Z,93.01
2018-12-11T00:33:16.557Z,93.32
2018-12-11T00:34:16.543Z,92.90
2018-12-11T00:35:16.533Z,92.66
2018-12-11T00:36:16.532Z,92.76
2018-12-11T00:37:16.515Z,92.59
2018-12-11T00:38:16.544Z,93.32
2018-12-11T00:39:16.489Z,92.90
2018-12-11T00:40:16.477Z,93.12
2018-12-11T00:41:16.469Z,92.76
2018-12-11T00:42:16.469Z,92.80
2018-12-11T00:43:16.447Z,93.07
2018-12-11T00:44:16.463Z,92.90
2018-12-11T00:45:16.432Z,92.86
2018-12-11T00:46:16.417Z,92.80
2018-12-11T00:47:16.403Z,92.90
2018-12-11T00:48:16.410Z,92.55
2018-12-11T00:49:16.381Z,92.86
2018-12-11T00:50:16.419Z,92.35
2018-12-11T00:51:16.359Z,92.66
2018-12-11T00:52:16.347Z,92.45
2018-12-11T00:53:16.341Z,92.55
2018-12-11T00:54:16.339Z,92.45
2018-12-11T00:55:16.316Z,92.35
2018-12-11T00:56:16.340Z,92.59
2018-12-11T00:57:16.293Z,92.66
2018-12-11T00:58:16.281Z,91.52
2018-12-11T00:59:16.274Z,92.76
2018-12-11T01:00:16.278Z,92.86
2018-12-11T01:01:16.249Z,92.45
2018-12-11T01:02:16.268Z,91.97
2018-12-11T01:03:16.227Z,91.93
2018-12-11T01:04:16.216Z,91.72
2018-12-11T01:05:16.206Z,91.93
2018-12-11T01:06:16.203Z,91.62
2018-12-11T01:07:16.199Z,92.18
2018-12-11T01:08:16.204Z,92.38
2018-12-11T01:09:16.161Z,92.49
2018-12-11T01:10:16.157Z,92.38
2018-12-11T01:11:16.143Z,92.38
2018-12-11T01:12:16.134Z,92.38
2018-12-11T01:13:16.135Z,92.18
2018-12-11T01:14:16.155Z,92.07
2018-12-11T01:15:16.097Z,92.18
2018-12-11T01:16:16.087Z,92.28
2018-12-11T01:17:16.075Z,92.80
2018-12-11T01:18:16.075Z,92.59
2018-12-11T01:19:16.054Z,92.38
2018-12-11T01:20:16.072Z,92.84
2018-12-11T01:21:16.034Z,93.05
2018-12-11T01:22:16.020Z,92.69
2018-12-11T01:23:16.011Z,92.84
2018-12-11T01:24:16.020Z,92.63
2018-12-11T01:25:15.988Z,92.49
2018-12-11T01:26:16.008Z,92.59
2018-12-11T01:27:15.969Z,92.90
2018-12-11T01:28:15.956Z,92.49
2018-12-11T01:29:15.944Z,92.74
2018-12-11T01:30:15.953Z,92.80
2018-12-11T01:31:15.928Z,92.84
2018-12-11T01:32:15.961Z,93.05
2018-12-11T01:33:15.930Z,92.59
2018-12-11T01:34:15.892Z,92.90
2018-12-11T01:35:15.882Z,92.90
2018-12-11T01:36:15.887Z,92.69
2018-12-11T01:37:15.858Z,92.90
2018-12-11T01:38:15.883Z,92.90
2018-12-11T01:39:15.841Z,93.12
2018-12-11T01:40:15.828Z,93.43
2018-12-11T01:41:15.818Z,93.22
2018-12-11T01:42:15.838Z,93.01
2018-12-11T01:43:15.793Z,93.22
2018-12-11T01:44:15.817Z,93.01
2018-12-11T01:45:15.773Z,93.22
2018-12-11T01:46:15.766Z,92.80
2018-12-11T01:47:15.755Z,93.12
2018-12-11T01:48:15.766Z,92.90
2018-12-11T01:49:15.730Z,92.90
2018-12-11T01:50:15.771Z,93.63
2018-12-11T01:51:15.707Z,93.68
2018-12-11T01:52:15.697Z,93.88
2018-12-11T01:53:15.684Z,93.84
2018-12-11T01:54:15.683Z,93.74
2018-12-11T01:55:15.666Z,94.05
2018-12-11T01:56:15.683Z,94.05
2018-12-11T01:57:15.643Z,94.05
2018-12-11T01:58:15.665Z,93.38
2018-12-11T01:59:15.620Z,94.15
2018-12-11T02:00:15.626Z,94.15
2018-12-11T02:01:15.597Z,94.05
2018-12-11T02:02:15.616Z,94.42
2018-12-11T02:03:15.576Z,94.11
2018-12-11T02:04:15.572Z,94.15
2018-12-11T02:05:15.554Z,94.15
2018-12-11T02:06:15.602Z,94.46
2018-12-11T02:07:15.532Z,94.15
2018-12-11T02:08:15.566Z,94.05
2018-12-11T02:09:15.509Z,93.95
2018-12-11T02:10:15.499Z,94.15
2018-12-11T02:11:15.490Z,94.15
2018-12-11T02:12:15.497Z,94.46
2018-12-11T02:13:15.471Z,94.67
2018-12-11T02:14:15.501Z,94.88
2018-12-11T02:15:15.446Z,94.57
2018-12-11T02:16:15.439Z,95.29
2018-12-11T02:17:15.427Z,95.09
2018-12-11T02:18:15.428Z,94.98
2018-12-11T02:19:15.402Z,95.13
2018-12-11T02:20:15.420Z,95.50
2018-12-11T02:21:15.385Z,94.88
2018-12-11T02:22:15.372Z,94.82
2018-12-11T02:23:15.361Z,94.82
2018-12-11T02:24:15.364Z,95.09
2018-12-11T02:25:15.340Z,95.34
2018-12-11T02:26:15.369Z,94.92
2018-12-11T02:27:15.321Z,95.61
2018-12-11T02:28:15.307Z,95.13
2018-12-11T02:29:15.292Z,95.09
2018-12-11T02:30:15.293Z,95.29
2018-12-11T02:31:15.273Z,94.51
2018-12-11T02:32:15.301Z,95.03
2018-12-11T02:33:15.251Z,94.71
2018-12-11T02:34:15.245Z,94.88
2018-12-11T02:35:15.231Z,94.78
2018-12-11T02:36:15.231Z,94.98
2018-12-11T02:37:15.208Z,95.09
2018-12-11T02:38:15.233Z,94.88
2018-12-11T02:39:15.185Z,94.67
2018-12-11T02:40:15.176Z,94.98
2018-12-11T02:41:15.167Z,94.15
2018-12-11T02:42:15.162Z,94.36
2018-12-11T02:43:15.154Z,94.36
2018-12-11T02:44:15.174Z,94.15
2018-12-11T02:45:15.119Z,94.46
2018-12-11T02:46:15.114Z,94.36
2018-12-11T02:47:15.097Z,94.67
2018-12-11T02:48:15.104Z,94.78
2018-12-11T02:49:15.077Z,94.78
2018-12-11T02:50:15.094Z,94.98
2018-12-11T02:51:15.057Z,94.98
2018-12-11T02:52:15.044Z,95.29
2018-12-11T02:53:15.033Z,95.09
2018-12-11T02:54:15.037Z,95.09
2018-12-11T02:55:15.011Z,95.92
2018-12-11T02:56:15.042Z,95.29
2018-12-11T02:57:14.989Z,95.71
2018-12-11T02:58:14.978Z,95.65
2018-12-11T02:59:15.001Z,95.61
2018-12-11T03:00:14.982Z,95.75
2018-12-11T03:01:14.946Z,94.88
2018-12-11T03:02:14.979Z,95.03
2018-12-11T03:03:14.932Z,95.75
2018-12-11T03:04:14.916Z,95.13
2018-12-11T03:05:14.902Z,95.19
2018-12-11T03:06:14.910Z,95.96
2018-12-11T03:07:14.882Z,95.61
2018-12-11T03:08:14.915Z,95.92
2018-12-11T03:09:14.860Z,95.75
2018-12-11T03:10:14.848Z,95.71
2018-12-11T03:11:14.836Z,95.23
2018-12-11T03:12:14.849Z,95.09
2018-12-11T03:13:14.814Z,95.19
2018-12-11T03:14:14.837Z,95.13
2018-12-11T03:15:14.792Z,94.57
2018-12-11T03:16:14.784Z,95.13
2018-12-11T03:17:14.780Z,95.19
2018-12-11T03:18:14.773Z,95.81
2018-12-11T03:19:14.752Z,95.71
2018-12-11T03:20:14.783Z,95.92
2018-12-11T03:21:14.730Z,94.98
2018-12-11T03:22:14.716Z,95.81
2018-12-11T03:23:14.705Z,95.50
2018-12-11T03:24:14.699Z,95.44
2018-12-11T03:25:14.688Z,95.75
2018-12-11T03:26:14.709Z,95.86
2018-12-11T03:27:14.663Z,95.96
2018-12-11T03:28:14.649Z,96.02
2018-12-11T03:29:14.645Z,95.86
2018-12-11T03:30:14.652Z,95.34
2018-12-11T03:31:14.624Z,95.65
2018-12-11T03:32:14.644Z,95.75
2018-12-11T03:33:14.599Z,95.34
2018-12-11T03:34:14.587Z,95.38
2018-12-11T03:35:14.578Z,95.48
2018-12-11T03:36:14.574Z,96.00
2018-12-11T03:37:14.557Z,96.00
2018-12-11T03:38:14.581Z,95.86
2018-12-11T03:39:14.533Z,96.00
2018-12-11T03:40:14.525Z,95.90
2018-12-11T03:41:14.516Z,95.96
2018-12-11T03:42:14.511Z,96.11
2018-12-11T03:43:14.486Z,95.96
2018-12-11T03:44:14.522Z,95.86
2018-12-11T03:45:14.556Z,95.96
2018-12-11T03:46:14.462Z,97.04
2018-12-11T03:47:14.448Z,95.86
2018-12-11T03:48:14.448Z,96.06
2018-12-11T03:49:14.431Z,95.48
2018-12-11T03:50:14.448Z,95.79
2018-12-11T03:51:14.407Z,95.90
2018-12-11T03:52:21.146Z,95.79
2018-12-11T03:53:15.379Z,96.11
2018-12-11T03:54:14.384Z,96.73
2018-12-11T03:55:14.358Z,96.31
2018-12-11T03:56:14.378Z,96.42
2018-12-11T03:57:14.338Z,96.62
2018-12-11T03:58:14.324Z,96.67
2018-12-11T03:59:14.317Z,96.62
2018-12-11T04:00:14.330Z,96.47
2018-12-11T04:01:14.293Z,96.31
2018-12-11T04:02:14.328Z,97.09
2018-12-11T04:03:14.270Z,96.88
2018-12-11T04:04:14.260Z,96.42
2018-12-11T04:05:14.251Z,96.88
2018-12-11T04:06:14.262Z,96.88
2018-12-11T04:07:14.227Z,96.57
2018-12-11T04:08:14.263Z,97.09
2018-12-11T04:09:14.205Z,96.67
2018-12-11T04:10:14.195Z,97.50
2018-12-11T04:11:14.187Z,97.40
2018-12-11T04:12:14.191Z,97.30
2018-12-11T04:13:14.234Z,97.30
2018-12-11T04:14:14.202Z,97.09
2018-12-11T04:15:14.140Z,96.62
2018-12-11T04:16:14.134Z,95.38
2018-12-11T04:17:14.123Z,95.34
2018-12-11T04:18:14.125Z,94.61
2018-12-11T04:19:14.096Z,94.51
2018-12-11T04:20:14.117Z,94.15
2018-12-11T04:21:14.078Z,94.71
2018-12-11T04:22:14.071Z,94.92
2018-12-11T04:23:14.053Z,95.34
2018-12-11T04:24:14.066Z,95.23
2018-12-11T04:25:14.029Z,95.03
2018-12-11T04:26:14.063Z,95.34
2018-12-11T04:27:15.437Z,95.13
2018-12-11T04:28:14.000Z,95.54
2018-12-11T04:29:13.987Z,95.65
2018-12-11T04:30:13.998Z,95.54
2018-12-11T04:31:13.966Z,95.86
2018-12-11T04:32:13.998Z,95.54
2018-12-11T04:33:13.943Z,95.44
2018-12-11T04:34:13.936Z,95.65
2018-12-11T04:35:13.921Z,95.86
2018-12-11T04:36:13.931Z,95.96
2018-12-11T04:37:13.904Z,95.75
2018-12-11T04:38:13.934Z,95.96
2018-12-11T04:39:13.879Z,95.96
2018-12-11T04:40:13.870Z,95.90
2018-12-11T04:41:13.857Z,96.00
2018-12-11T04:42:13.856Z,95.90
2018-12-11T04:43:13.838Z,95.38
2018-12-11T04:44:13.869Z,95.48
2018-12-11T04:45:13.813Z,95.90
2018-12-11T04:46:13.803Z,95.79
2018-12-11T04:47:13.793Z,96.42
2018-12-11T04:48:13.794Z,96.11
2018-12-11T04:49:13.771Z,96.42
2018-12-11T04:50:13.793Z,96.62
2018-12-11T04:51:13.749Z,96.62
2018-12-11T04:52:13.737Z,96.00
2018-12-11T04:53:13.726Z,95.59
2018-12-11T04:54:13.728Z,95.69
2018-12-11T04:55:13.704Z,95.59
2018-12-11T04:56:13.738Z,95.59
2018-12-11T04:57:13.682Z,95.69
2018-12-11T04:58:13.672Z,95.38
2018-12-11T04:59:13.664Z,95.48
2018-12-11T05:00:13.658Z,96.11
2018-12-11T05:01:13.658Z,96.00
2018-12-11T05:02:13.672Z,95.90
2018-12-11T05:03:13.619Z,95.90
2018-12-11T05:04:13.613Z,95.90
2018-12-11T05:05:13.600Z,95.69
2018-12-11T05:06:13.600Z,96.17
2018-12-11T05:07:13.574Z,96.37
2018-12-11T05:08:13.613Z,96.83
2018-12-11T05:09:13.554Z,96.42
2018-12-11T05:10:13.542Z,96.62
2018-12-11T05:11:13.531Z,96.31
2018-12-11T05:12:13.534Z,96.31
2018-12-11T05:13:13.512Z,96.62
2018-12-11T05:14:13.528Z,96.94
2018-12-11T05:15:13.501Z,96.25
2018-12-11T05:16:13.475Z,96.00
2018-12-11T05:17:13.465Z,95.38
2018-12-11T05:18:13.455Z,95.21
2018-12-11T05:19:13.470Z,95.32
2018-12-11T05:20:13.568Z,95.42
2018-12-11T05:21:13.421Z,95.53
2018-12-11T05:22:13.419Z,95.59
2018-12-11T05:23:13.443Z,95.38
2018-12-11T05:24:13.393Z,95.38
2018-12-11T05:25:13.381Z,96.00
2018-12-11T05:26:13.424Z,95.79
2018-12-11T05:27:13.356Z,95.79
2018-12-11T05:28:13.345Z,95.69
2018-12-11T05:29:13.353Z,95.79
2018-12-11T05:30:13.323Z,95.79
2018-12-11T05:31:13.317Z,95.69
2018-12-11T05:32:13.343Z,95.59
2018-12-11T05:33:13.290Z,95.48
2018-12-11T05:34:13.291Z,95.38
2018-12-11T05:35:13.865Z,95.69
2018-12-11T05:36:13.259Z,95.53
2018-12-11T05:37:13.249Z,96.04
2018-12-11T05:38:13.283Z,95.79
2018-12-11T05:39:13.227Z,96.11
2018-12-11T05:40:13.215Z,96.04
2018-12-11T05:41:13.210Z,95.94
2018-12-11T05:42:13.198Z,95.73
2018-12-11T05:43:13.184Z,96.15
2018-12-11T05:44:13.282Z,95.84
2018-12-11T05:45:13.253Z,96.04
2018-12-11T05:46:13.170Z,96.88
2018-12-11T05:47:13.141Z,96.25
2018-12-11T05:48:13.144Z,96.67
2018-12-11T05:49:13.122Z,96.47
2018-12-11T05:50:13.157Z,96.47
2018-12-11T05:51:13.116Z,96.57
2018-12-11T05:52:13.084Z,96.47
2018-12-11T05:53:13.083Z,96.47
2018-12-11T05:54:13.062Z,96.21
2018-12-11T05:55:13.052Z,95.90
2018-12-11T05:56:13.098Z,96.11
2018-12-11T05:57:13.040Z,95.69
2018-12-11T05:58:13.039Z,96.00
2018-12-11T05:59:13.018Z,95.94
2018-12-11T06:00:13.005Z,95.84
2018-12-11T06:01:12.994Z,95.79
2018-12-11T06:02:13.024Z,96.15
2018-12-11T06:03:12.970Z,96.25
2018-12-11T06:04:12.958Z,95.90
2018-12-11T06:05:12.965Z,95.79
2018-12-11T06:06:12.941Z,95.94
2018-12-11T06:07:12.937Z,96.04
2018-12-11T06:08:13.130Z,96.21
2018-12-11T06:09:12.904Z,96.94
2018-12-11T06:10:12.902Z,96.62
2018-12-11T06:11:12.885Z,96.47
2018-12-11T06:12:12.868Z,96.47
2018-12-11T06:13:12.855Z,96.36
2018-12-11T06:14:12.890Z,97.09
2018-12-11T06:15:12.834Z,96.98
2018-12-11T06:16:12.822Z,96.47
2018-12-11T06:17:12.814Z,96.98
2018-12-11T06:18:12.800Z,97.30
2018-12-11T06:19:12.803Z,96.78
2018-12-11T06:20:12.808Z,96.82
2018-12-11T06:21:12.769Z,96.57
2018-12-11T06:22:12.759Z,96.88
2018-12-11T06:23:12.747Z,96.88
2018-12-11T06:24:12.735Z,96.92
2018-12-11T06:25:12.732Z,97.19
2018-12-11T06:26:12.756Z,96.88
2018-12-11T06:27:12.704Z,96.78
2018-12-11T06:28:12.691Z,96.47
2018-12-11T06:29:12.683Z,96.78
2018-12-11T06:30:12.669Z,96.98
2018-12-11T06:31:12.659Z,96.47
2018-12-11T06:32:12.695Z,96.47
2018-12-11T06:33:12.655Z,97.04
2018-12-11T06:34:12.628Z,95.94
2018-12-11T06:35:12.616Z,97.04
2018-12-11T06:36:12.622Z,96.04
2018-12-11T06:37:12.597Z,95.73
2018-12-11T06:38:12.627Z,95.69
2018-12-11T06:39:12.593Z,95.59
2018-12-11T06:40:12.566Z,95.63
2018-12-11T06:41:12.552Z,96.11
2018-12-11T06:42:12.540Z,95.28
2018-12-11T06:43:12.532Z,94.86
2018-12-11T06:44:12.546Z,94.76
2018-12-11T06:45:12.525Z,94.65
2018-12-11T06:46:12.500Z,94.65
2018-12-11T06:47:12.489Z,94.65
2018-12-11T06:48:12.493Z,94.76
2018-12-11T06:49:12.465Z,94.20
2018-12-11T06:50:12.500Z,94.20
2018-12-11T06:51:12.463Z,94.24
2018-12-11T06:52:12.432Z,94.03
2018-12-11T06:53:12.434Z,93.88
2018-12-11T06:54:12.412Z,92.94
2018-12-11T06:55:12.399Z,93.26
2018-12-11T06:56:12.414Z,93.16
2018-12-11T06:57:12.385Z,92.99
2018-12-11T06:58:12.374Z,93.37
2018-12-11T06:59:12.355Z,92.84
2018-12-11T07:00:12.344Z,92.53
2018-12-11T07:01:12.333Z,92.94
2018-12-11T07:02:12.351Z,93.16
2018-12-11T07:03:12.314Z,93.68
2018-12-11T07:04:12.303Z,93.88
2018-12-11T07:05:12.307Z,94.20
2018-12-11T07:06:12.285Z,94.20
2018-12-11T07:07:12.276Z,94.40
2018-12-11T07:08:12.360Z,93.99
2018-12-11T07:09:12.264Z,94.20
2018-12-11T07:10:12.235Z,94.40
2018-12-11T07:11:12.236Z,95.17
2018-12-11T07:12:12.213Z,95.69
2018-12-11T07:13:12.206Z,95.59
2018-12-11T07:14:12.256Z,96.11
2018-12-11T07:15:12.180Z,96.42
2018-12-11T07:16:12.170Z,96.67
2018-12-11T07:17:12.159Z,96.73
2018-12-11T07:18:12.150Z,96.88
2018-12-11T07:19:12.150Z,97.09
2018-12-11T07:20:12.166Z,97.19
2018-12-11T07:21:12.118Z,97.19
2018-12-11T07:22:12.105Z,96.78
2018-12-11T07:23:12.115Z,96.73
2018-12-11T07:24:12.081Z,96.98
2018-12-11T07:25:12.081Z,96.88
2018-12-11T07:26:12.119Z,97.09
2018-12-11T07:27:12.060Z,96.98
2018-12-11T07:28:12.047Z,97.19
2018-12-11T07:29:12.049Z,97.50
2018-12-11T07:30:12.447Z,97.61
2018-12-11T07:31:12.007Z,97.71
2018-12-11T07:32:12.086Z,97.71
2018-12-11T07:33:12.003Z,97.92
2018-12-11T07:34:11.977Z,97.50
2018-12-11T07:35:11.961Z,98.13
2018-12-11T07:36:11.961Z,97.92
2018-12-11T07:37:11.941Z,98.13
2018-12-11T07:38:11.957Z,98.54
2018-12-11T07:39:11.921Z,98.44
2018-12-11T07:40:11.908Z,98.75
2018-12-11T07:41:11.916Z,98.75
2018-12-11T07:42:11.884Z,98.54
2018-12-11T07:43:11.881Z,98.75
2018-12-11T07:44:11.909Z,97.92
2018-12-11T07:45:11.858Z,98.44
2018-12-11T07:46:11.842Z,98.02
2018-12-11T07:47:11.858Z,98.23
2018-12-11T07:48:11.822Z,98.33
2018-12-11T07:49:11.817Z,98.02
2018-12-11T07:50:11.846Z,98.33
2018-12-11T07:51:11.793Z,98.29
2018-12-11T07:52:11.786Z,98.75
2018-12-11T07:53:11.787Z,98.75
2018-12-11T07:54:11.758Z,98.33
2018-12-11T07:55:11.743Z,98.39
2018-12-11T07:56:11.768Z,98.33
2018-12-11T07:57:11.724Z,98.33
2018-12-11T07:58:11.711Z,97.71
2018-12-11T07:59:11.726Z,98.44
2018-12-11T08:00:11.692Z,97.92
2018-12-11T08:01:11.683Z,98.19
2018-12-11T08:02:11.708Z,98.29
2018-12-11T08:03:11.660Z,98.29
2018-12-11T08:04:11.647Z,98.19
2018-12-11T08:05:11.648Z,98.19
2018-12-11T08:06:11.624Z,98.08
2018-12-11T08:07:11.615Z,98.08
2018-12-11T08:08:11.651Z,98.29
2018-12-11T08:09:11.593Z,98.29
2018-12-11T08:10:11.582Z,97.88
2018-12-11T08:11:11.593Z,97.98
2018-12-11T08:12:11.564Z,97.25
2018-12-11T08:13:11.549Z,96.73
2018-12-11T08:14:11.592Z,96.58
2018-12-11T08:15:11.530Z,96.42
2018-12-11T08:16:11.520Z,95.86
2018-12-11T08:17:11.521Z,96.17
2018-12-11T08:18:11.494Z,95.44
2018-12-11T08:19:11.483Z,95.75
2018-12-11T08:20:11.514Z,95.44
2018-12-11T08:21:11.463Z,95.23
2018-12-11T08:22:11.456Z,95.34
2018-12-11T08:23:11.452Z,95.13
2018-12-11T08:24:11.454Z,95.96
2018-12-11T08:25:11.419Z,95.54
2018-12-11T08:26:11.440Z,95.13
2018-12-11T08:27:11.398Z,95.13
2018-12-11T08:28:11.384Z,95.23
2018-12-11T08:29:11.375Z,94.46
2018-12-11T08:30:11.453Z,94.46
2018-12-11T08:31:11.352Z,94.05
2018-12-11T08:32:11.374Z,94.26
2018-12-11T08:33:11.333Z,93.95
2018-12-11T08:34:11.319Z,93.32
2018-12-11T08:35:11.311Z,93.57
2018-12-11T08:36:11.316Z,94.05
2018-12-11T08:37:11.307Z,93.22
2018-12-11T08:38:11.318Z,93.01
2018-12-11T08:39:11.266Z,93.95
2018-12-11T08:40:11.279Z,94.05
2018-12-11T08:41:11.249Z,93.22
2018-12-11T08:42:11.233Z,93.53
2018-12-11T08:43:11.235Z,94.05
2018-12-11T08:44:11.241Z,93.12
2018-12-11T08:45:11.203Z,92.38
2018-12-11T08:46:11.192Z,92.80
2018-12-11T08:47:11.179Z,93.22
2018-12-11T08:48:11.169Z,93.22
2018-12-11T08:49:11.175Z,92.59
2018-12-11T08:50:11.180Z,92.90
2018-12-11T08:51:11.142Z,91.66
2018-12-11T08:52:11.125Z,92.63
2018-12-11T08:53:11.114Z,92.84
2018-12-11T08:54:11.104Z,93.32
2018-12-11T08:55:11.112Z,93.88
2018-12-11T08:56:11.134Z,93.63
2018-12-11T08:57:11.073Z,93.01
2018-12-11T08:58:11.060Z,93.16
2018-12-11T08:59:11.049Z,93.32
2018-12-11T09:00:11.039Z,93.01
2018-12-11T09:01:11.030Z,93.32
2018-12-11T09:02:11.078Z,93.28
2018-12-11T09:03:11.009Z,93.18
2018-12-11T09:04:10.996Z,92.45
2018-12-11T09:05:10.986Z,92.45
2018-12-11T09:06:10.971Z,92.35
2018-12-11T09:07:10.961Z,92.14
2018-12-11T09:08:10.992Z,92.55
2018-12-11T09:09:10.939Z,92.66
2018-12-11T09:10:11.878Z,93.07
2018-12-11T09:11:10.918Z,93.49
2018-12-11T09:12:10.907Z,93.80
2018-12-11T09:13:10.897Z,93.49
2018-12-11T09:14:10.938Z,94.05
2018-12-11T09:15:10.880Z,93.70
2018-12-11T09:16:10.867Z,94.63
2018-12-11T09:17:10.851Z,94.21
2018-12-11T09:18:10.841Z,93.63
2018-12-11T09:19:10.832Z,93.95
2018-12-11T09:20:10.868Z,94.05
2018-12-11T09:21:10.817Z,93.95
2018-12-11T09:22:10.800Z,93.95
2018-12-11T09:23:10.787Z,93.95
2018-12-11T09:24:10.778Z,93.84
2018-12-11T09:25:10.773Z,94.15
2018-12-11T09:26:10.800Z,93.78
2018-12-11T09:27:10.747Z,94.46
2018-12-11T09:28:11.319Z,94.30
2018-12-11T09:29:10.724Z,94.30
2018-12-11T09:30:10.721Z,94.09
2018-12-11T09:31:10.732Z,94.61
2018-12-11T09:32:10.840Z,94.36
2018-12-11T09:33:10.746Z,94.15
2018-12-11T09:34:10.678Z,94.05
2018-12-11T09:35:10.697Z,93.95
2018-12-11T09:36:10.647Z,94.15
2018-12-11T09:37:10.812Z,94.21
2018-12-11T09:38:10.656Z,94.11
2018-12-11T09:39:10.624Z,94.11
2018-12-11T09:40:10.605Z,93.90
2018-12-11T09:41:10.601Z,93.18
2018-12-11T09:42:10.593Z,93.02
2018-12-11T09:43:10.574Z,93.65
2018-12-11T09:44:10.673Z,93.75
2018-12-11T09:45:10.555Z,93.54
2018-12-11T09:46:10.615Z,93.08
2018-12-11T09:47:10.527Z,92.93
2018-12-11T09:48:10.544Z,93.19
2018-12-11T09:49:10.506Z,93.50
2018-12-11T09:50:10.545Z,93.71
2018-12-11T09:51:10.514Z,93.40
2018-12-11T09:52:10.472Z,93.19
2018-12-11T09:53:10.464Z,93.08
2018-12-11T09:54:10.448Z,93.60
2018-12-11T09:55:10.437Z,93.81
2018-12-11T09:56:10.475Z,93.71
2018-12-11T09:57:10.422Z,93.91
2018-12-11T09:58:10.421Z,93.81
2018-12-11T09:59:10.402Z,93.81
2018-12-11T10:00:10.391Z,94.02
2018-12-11T10:01:10.379Z,93.91
2018-12-11T10:02:10.392Z,92.68
2018-12-11T10:03:10.352Z,92.88
2018-12-11T10:04:10.344Z,92.36
2018-12-11T10:05:10.347Z,92.22
2018-12-11T10:06:10.319Z,92.36
2018-12-11T10:07:10.314Z,92.57
2018-12-11T10:08:10.330Z,92.22
2018-12-11T10:09:10.286Z,92.84
2018-12-11T10:10:10.285Z,92.63
2018-12-11T10:11:10.300Z,92.01
2018-12-11T10:12:10.256Z,92.63
2018-12-11T10:13:10.316Z,91.49
2018-12-11T10:14:10.269Z,91.60
2018-12-11T10:15:10.220Z,92.07
2018-12-11T10:16:10.214Z,91.03
2018-12-11T10:17:10.234Z,90.52
2018-12-11T10:18:10.322Z,90.20
2018-12-11T10:19:10.179Z,89.69
2018-12-11T10:20:10.204Z,90.20
2018-12-11T10:21:10.168Z,90.52
2018-12-11T10:22:10.144Z,90.10
2018-12-11T10:23:10.139Z,90.31
2018-12-11T10:24:10.132Z,90.41
2018-12-11T10:25:10.112Z,88.96
2018-12-11T10:26:10.129Z,90.00
2018-12-11T10:27:10.096Z,90.31
2018-12-11T10:28:10.082Z,90.06
2018-12-11T10:29:10.089Z,89.03
2018-12-11T10:30:10.056Z,89.03
2018-12-11T10:31:10.051Z,90.26
2018-12-11T10:32:10.073Z,90.10
2018-12-11T10:33:10.026Z,88.71
2018-12-11T10:34:10.045Z,89.13
2018-12-11T10:35:10.006Z,88.82
2018-12-11T10:36:09.996Z,88.51
2018-12-11T10:37:09.987Z,88.61
2018-12-11T10:38:10.000Z,88.51
2018-12-11T10:39:09.961Z,87.78
2018-12-11T10:40:10.048Z,88.71
2018-12-11T10:41:09.952Z,88.40
2018-12-11T10:42:09.946Z,88.40
2018-12-11T10:43:09.918Z,87.68
2018-12-11T10:44:10.066Z,87.37
2018-12-11T10:45:09.896Z,87.99
2018-12-11T10:46:09.931Z,85.92
2018-12-11T10:47:09.899Z,86.44
2018-12-11T10:48:09.870Z,87.88
2018-12-11T10:49:09.860Z,87.27
2018-12-11T10:50:10.058Z,87.37
2018-12-11T10:51:09.830Z,87.68
2018-12-11T10:52:09.829Z,87.88
2018-12-11T10:53:09.825Z,88.20
2018-12-11T10:54:09.801Z,87.88
2018-12-11T10:55:09.793Z,87.16
2018-12-11T10:56:09.822Z,86.96
2018-12-11T10:57:09.797Z,87.27
2018-12-11T10:58:09.757Z,87.57
2018-12-11T10:59:10.396Z,86.96
2018-12-11T11:00:09.733Z,87.06
2018-12-11T11:01:09.735Z,87.78
2018-12-11T11:02:09.753Z,87.06
2018-12-11T11:03:09.700Z,87.68
2018-12-11T11:04:09.691Z,88.46
2018-12-11T11:05:09.679Z,87.27
2018-12-11T11:06:09.672Z,86.91
2018-12-11T11:07:09.671Z,87.43
2018-12-11T11:08:09.674Z,87.02
2018-12-11T11:09:09.643Z,87.43
2018-12-11T11:10:09.629Z,87.06
2018-12-11T11:11:09.623Z,86.60
2018-12-11T11:12:09.615Z,86.85
2018-12-11T11:13:09.606Z,85.19
2018-12-11T11:14:09.618Z,84.99
2018-12-11T11:15:09.585Z,86.44
2018-12-11T11:16:09.561Z,86.13
2018-12-11T11:17:09.549Z,86.65
2018-12-11T11:18:09.538Z,87.16
2018-12-11T11:19:09.545Z,86.96
2018-12-11T11:20:09.545Z,87.06
2018-12-11T11:21:09.507Z,87.33
2018-12-11T11:22:09.498Z,87.06
2018-12-11T11:23:09.489Z,86.44
2018-12-11T11:24:09.473Z,85.99
2018-12-11T11:25:09.477Z,85.78
2018-12-11T11:26:09.483Z,86.81
2018-12-11T11:27:09.440Z,85.57
2018-12-11T11:28:09.432Z,84.95
2018-12-11T11:29:09.422Z,84.70
2018-12-11T11:30:09.408Z,85.63
2018-12-11T11:31:09.426Z,86.46
2018-12-11T11:32:09.433Z,86.25
2018-12-11T11:33:09.378Z,86.52
2018-12-11T11:34:09.367Z,86.21
2018-12-11T11:35:09.354Z,85.84
2018-12-11T11:36:09.348Z,85.74
2018-12-11T11:37:09.356Z,85.60
2018-12-11T11:38:09.355Z,86.36
2018-12-11T11:39:09.311Z,86.36
2018-12-11T11:40:09.300Z,85.63
2018-12-11T11:41:09.293Z,85.26
2018-12-11T11:42:09.278Z,85.74
2018-12-11T11:43:09.282Z,85.47
2018-12-11T11:44:09.300Z,84.53
2018-12-11T11:45:09.247Z,86.09
2018-12-11T11:46:09.236Z,85.88
2018-12-11T11:47:09.225Z,85.16
2018-12-11T11:48:09.220Z,85.57
2018-12-11T11:49:09.216Z,85.05
2018-12-11T11:50:09.226Z,85.36
2018-12-11T11:51:09.184Z,85.05
2018-12-11T11:52:09.171Z,84.95
2018-12-11T11:53:09.161Z,85.68
2018-12-11T11:54:09.150Z,85.26
2018-12-11T11:55:09.164Z,86.09
2018-12-11T11:56:09.174Z,85.78
2018-12-11T11:57:09.117Z,86.19
2018-12-11T11:58:09.109Z,86.60
2018-12-11T11:59:09.097Z,86.91
2018-12-11T12:00:09.085Z,87.27
2018-12-11T12:01:09.074Z,88.71
2018-12-11T12:02:09.105Z,89.34
2018-12-11T12:03:09.058Z,88.82
2018-12-11T12:04:09.047Z,88.20
2018-12-11T12:05:09.048Z,88.61
2018-12-11T12:06:09.028Z,88.30
2018-12-11T12:07:09.017Z,89.44
2018-12-11T12:08:09.097Z,88.71
2018-12-11T12:09:09.029Z,88.51
2018-12-11T12:10:08.991Z,86.65
2018-12-11T12:11:08.995Z,87.06
2018-12-11T12:12:08.960Z,88.61
2018-12-11T12:13:08.968Z,88.61
2018-12-11T12:14:08.965Z,87.99
2018-12-11T12:15:08.922Z,88.61
2018-12-11T12:16:08.934Z,88.09
2018-12-11T12:17:08.902Z,89.13
2018-12-11T12:18:08.892Z,90.26
2018-12-11T12:19:08.884Z,90.10
2018-12-11T12:20:08.924Z,91.03
2018-12-11T12:21:08.876Z,90.41
2018-12-11T12:22:08.851Z,91.14
2018-12-11T12:23:08.837Z,90.97
2018-12-11T12:24:08.828Z,91.28
2018-12-11T12:25:08.823Z,91.97
2018-12-11T12:26:08.850Z,90.62
2018-12-11T12:27:08.799Z,90.45
2018-12-11T12:28:08.820Z,90.87
2018-12-11T12:29:08.775Z,90.62
2018-12-11T12:30:08.764Z,90.25
2018-12-11T12:31:08.757Z,89.62
2018-12-11T12:32:08.768Z,90.25
2018-12-11T12:33:08.747Z,90.62
2018-12-11T12:34:08.721Z,90.77
2018-12-11T12:35:08.708Z,90.56
2018-12-11T12:36:08.700Z,89.42
2018-12-11T12:37:08.685Z,89.07
2018-12-11T12:38:08.709Z,89.00
2018-12-11T12:39:08.678Z,88.28
2018-12-11T12:40:08.652Z,90.35
2018-12-11T12:41:08.641Z,90.62
2018-12-11T12:42:08.636Z,90.56
2018-12-11T12:43:08.619Z,90.77
2018-12-11T12:44:08.652Z,90.14
2018-12-11T12:45:08.611Z,90.31
2018-12-11T12:46:08.588Z,90.31
2018-12-11T12:47:08.599Z,90.45
2018-12-11T12:48:08.564Z,90.10
2018-12-11T12:49:08.555Z,90.41
2018-12-11T12:50:08.577Z,90.31
2018-12-11T12:51:08.532Z,88.86
2018-12-11T12:52:08.548Z,87.88